createdAt,value
2023-05-02T00:01:33.750Z,100229.00
2023-05-02T00:04:02.081Z,100225.25
2023-05-02T00:06:31.507Z,100220.16
2023-05-02T00:08:59.609Z,100215.56
2023-05-02T00:11:27.608Z,100224.38
2023-05-02T00:13:55.408Z,100219.94
2023-05-02T00:16:23.690Z,100239.09
2023-05-02T00:18:52.993Z,100224.97
2023-05-02T00:21:20.808Z,100232.03
2023-05-02T00:23:48.719Z,100219.84
2023-05-02T00:26:16.668Z,100228.50
2023-05-02T00:28:44.492Z,100221.31
2023-05-02T00:31:12.470Z,100203.41
2023-05-02T00:33:41.059Z,100213.03
2023-05-02T00:36:16.736Z,100212.06
2023-05-02T00:38:44.761Z,100222.38
2023-05-02T00:41:13.079Z,100217.78
2023-05-02T00:43:41.148Z,100229.16
2023-05-02T00:46:09.304Z,100216.97
2023-05-02T00:48:37.336Z,100219.47
2023-05-02T00:51:06.502Z,100221.34
2023-05-02T00:53:37.307Z,100225.59
2023-05-02T00:56:05.386Z,100224.56
2023-05-02T00:58:34.556Z,100223.63
2023-05-02T01:01:17.786Z,100224.47
2023-05-02T01:04:02.295Z,100214.50
2023-05-02T01:06:41.912Z,100217.00
2023-05-02T01:09:23.647Z,100249.56
2023-05-02T01:11:58.045Z,100231.34
2023-05-02T01:14:27.599Z,100175.44
2023-05-02T01:16:58.246Z,100225.91
2023-05-02T01:19:30.488Z,100239.97
2023-05-02T01:21:59.989Z,100243.31
2023-05-02T01:24:33.983Z,100241.47
2023-05-02T01:27:12.816Z,100229.81
2023-05-02T01:29:44.004Z,100231.41
2023-05-02T01:32:14.634Z,100244.53
2023-05-02T01:34:44.795Z,100241.81
2023-05-02T01:37:14.540Z,100250.34
2023-05-02T01:39:43.927Z,100254.50
2023-05-02T01:42:14.013Z,100255.16
2023-05-02T01:44:44.701Z,100261.03
2023-05-02T01:47:14.930Z,100235.19
2023-05-02T01:49:44.907Z,100194.31
2023-05-02T01:52:14.277Z,100240.34
2023-05-02T01:54:42.622Z,100239.28
2023-05-02T01:57:13.161Z,100254.22
2023-05-02T01:59:44.926Z,100261.91
2023-05-02T02:02:14.450Z,100253.94
2023-05-02T02:04:43.693Z,100265.06
2023-05-02T02:07:15.213Z,100260.56
2023-05-02T02:09:43.283Z,100269.97
2023-05-02T02:12:16.785Z,100266.34
2023-05-02T02:14:51.582Z,100272.31
2023-05-02T02:17:27.106Z,100267.72
2023-05-02T02:19:57.608Z,100272.84
2023-05-02T02:22:29.473Z,100270.25
2023-05-02T02:25:00.374Z,100285.16
2023-05-02T02:27:28.370Z,100278.94
2023-05-02T02:29:57.940Z,100284.03
2023-05-02T02:32:26.007Z,100275.97
2023-05-02T02:34:54.106Z,100282.84
2023-05-02T02:37:31.135Z,100296.59
2023-05-02T02:40:05.370Z,100220.44
2023-05-02T02:42:41.243Z,100285.00
2023-05-02T02:45:31.208Z,100139.41
2023-05-02T02:48:07.189Z,100290.81
2023-05-02T02:50:40.971Z,100303.69
2023-05-02T02:53:14.564Z,100292.66
2023-05-02T02:55:49.092Z,100311.94
2023-05-02T02:58:35.557Z,100313.44
2023-05-02T03:01:07.739Z,100317.50
2023-05-02T03:03:37.010Z,100265.22
2023-05-02T03:06:05.930Z,100313.63
2023-05-02T03:08:41.365Z,100326.41
2023-05-02T03:11:09.778Z,100331.53
2023-05-02T03:13:37.779Z,100333.19
2023-05-02T03:16:33.873Z,100311.88
2023-05-02T03:19:01.950Z,100332.94
2023-05-02T03:21:31.734Z,100336.34
2023-05-02T03:24:00.922Z,100345.84
2023-05-02T03:26:29.103Z,100340.59
2023-05-02T03:28:58.107Z,100343.94
2023-05-02T03:31:27.486Z,100348.19
2023-05-02T03:33:55.516Z,100340.13
2023-05-02T03:36:23.541Z,100333.00
2023-05-02T03:38:51.565Z,100340.19
2023-05-02T03:41:20.984Z,100339.09
2023-05-02T03:43:49.947Z,100350.44
2023-05-02T03:46:18.197Z,100358.28
2023-05-02T03:48:47.541Z,100364.56
2023-05-02T03:51:15.510Z,100351.00
2023-05-02T03:53:43.689Z,100368.88
2023-05-02T03:56:11.529Z,100380.84
2023-05-02T03:58:39.499Z,100367.44
2023-05-02T04:01:15.262Z,100384.19
2023-05-02T04:03:44.719Z,100380.34
2023-05-02T04:06:14.107Z,100299.47
2023-05-02T04:08:42.085Z,100381.50
2023-05-02T04:11:09.997Z,100385.00
2023-05-02T04:13:37.830Z,100394.56
2023-05-02T04:16:06.401Z,100397.44
2023-05-02T04:18:34.447Z,100411.22
2023-05-02T04:21:02.293Z,100399.47
2023-05-02T04:23:31.615Z,100382.94
2023-05-02T04:25:59.582Z,100411.97
2023-05-02T04:28:27.450Z,100411.09
2023-05-02T04:30:55.928Z,100411.09
2023-05-02T04:33:24.149Z,100416.91
2023-05-02T04:35:53.040Z,100426.53
2023-05-02T04:38:22.714Z,100423.13
2023-05-02T04:40:53.321Z,100431.84
2023-05-02T04:43:24.252Z,100434.59
2023-05-02T04:45:53.111Z,100410.59
2023-05-02T04:48:21.751Z,100439.56
2023-05-02T04:50:51.043Z,100437.66
2023-05-02T04:53:19.213Z,100435.00
2023-05-02T04:55:47.045Z,100446.47
2023-05-02T04:58:17.622Z,100459.53
2023-05-02T05:00:48.455Z,100422.41
2023-05-02T05:03:18.459Z,100448.19
2023-05-02T05:05:46.634Z,100449.97
2023-05-02T05:08:14.673Z,100459.53
2023-05-02T05:10:42.554Z,100457.81
2023-05-02T05:13:12.598Z,100464.78
2023-05-02T05:15:49.547Z,100444.25
2023-05-02T05:18:18.107Z,100443.44
2023-05-02T05:20:45.951Z,100464.25
2023-05-02T05:23:13.945Z,100427.94
2023-05-02T05:25:44.980Z,100449.28
2023-05-02T05:28:13.797Z,100473.50
2023-05-02T05:30:41.927Z,100481.13
2023-05-02T05:33:11.308Z,100488.03
2023-05-02T05:35:39.148Z,100489.81
2023-05-02T05:38:07.106Z,100500.19
2023-05-02T05:40:35.023Z,100481.75
2023-05-02T05:43:02.843Z,100483.44
2023-05-02T05:45:30.784Z,100483.59
2023-05-02T05:47:58.716Z,100495.00
2023-05-02T05:50:27.973Z,100498.72
2023-05-02T05:52:55.859Z,100502.25
2023-05-02T05:55:24.139Z,100506.50
2023-05-02T05:57:51.992Z,100492.94
2023-05-02T06:00:20.921Z,100509.50
2023-05-02T06:02:48.973Z,100519.13
2023-05-02T06:05:17.464Z,100512.69
2023-05-02T06:07:46.936Z,100523.50
2023-05-02T06:10:15.037Z,100530.81
2023-05-02T06:12:42.907Z,100405.41
2023-05-02T06:15:11.394Z,100534.59
2023-05-02T06:17:39.411Z,100541.66
2023-05-02T06:20:09.407Z,100544.25
2023-05-02T06:22:37.361Z,100554.69
2023-05-02T06:25:07.777Z,100561.81
2023-05-02T06:27:35.961Z,100557.59
2023-05-02T06:30:04.264Z,100554.09
2023-05-02T06:32:32.637Z,100559.22
2023-05-02T06:35:00.870Z,100555.66
2023-05-02T06:37:28.888Z,100567.38
2023-05-02T06:39:56.763Z,100576.34
2023-05-02T06:42:26.042Z,100570.53
2023-05-02T06:44:53.972Z,100582.03
2023-05-02T06:47:22.133Z,100586.75
2023-05-02T06:49:50.092Z,100598.31
2023-05-02T06:52:18.008Z,100570.06
2023-05-02T06:54:45.905Z,100597.66
2023-05-02T06:57:13.867Z,100586.53
2023-05-02T06:59:43.245Z,100600.06
2023-05-02T07:02:11.327Z,100607.72
2023-05-02T07:04:39.194Z,100614.16
2023-05-02T07:07:07.476Z,100620.81
2023-05-02T07:09:35.405Z,100616.22
2023-05-02T07:12:06.081Z,100596.50
2023-05-02T07:14:34.877Z,100637.03
2023-05-02T07:17:04.379Z,100635.78
2023-05-02T07:19:32.268Z,100642.47
2023-05-02T07:22:00.224Z,100652.72
2023-05-02T07:24:28.222Z,100646.03
2023-05-02T07:26:56.073Z,100652.19
2023-05-02T07:29:24.066Z,100667.63
2023-05-02T07:31:52.125Z,100669.94
2023-05-02T07:34:21.359Z,100669.72
2023-05-02T07:36:49.260Z,100681.28
2023-05-02T07:39:17.253Z,100684.47
2023-05-02T07:41:45.100Z,100683.13
2023-05-02T07:44:13.076Z,100584.69
2023-05-02T07:46:41.225Z,100710.94
2023-05-02T07:49:09.133Z,100701.97
2023-05-02T07:51:39.963Z,100718.06
2023-05-02T07:54:16.691Z,100716.94
2023-05-02T07:56:44.741Z,100726.13
2023-05-02T07:59:12.999Z,100743.03
2023-05-02T08:01:41.615Z,100731.44
2023-05-02T08:04:10.584Z,100734.84
2023-05-02T08:06:40.250Z,100736.00
2023-05-02T08:09:09.414Z,100744.25
2023-05-02T08:11:37.480Z,100760.59
2023-05-02T08:14:05.495Z,100751.56
2023-05-02T08:16:33.436Z,100766.66
2023-05-02T08:19:01.435Z,100762.53
2023-05-02T08:21:29.461Z,100767.50
2023-05-02T08:24:00.700Z,100774.66
2023-05-02T08:26:29.352Z,100775.16
2023-05-02T08:28:57.355Z,100788.88
2023-05-02T08:31:25.206Z,100775.47
2023-05-02T08:33:53.685Z,100789.88
2023-05-02T08:36:21.791Z,100781.75
2023-05-02T08:38:49.904Z,100797.06
2023-05-02T08:41:20.534Z,100800.66
2023-05-02T08:43:48.671Z,100796.78
2023-05-02T08:46:18.097Z,100820.94
2023-05-02T08:48:48.893Z,100832.72
2023-05-02T08:53:48.025Z,100832.41
2023-05-02T08:56:15.838Z,100829.34
2023-05-02T08:58:45.192Z,100830.47
2023-05-02T09:01:16.140Z,100840.97
2023-05-02T09:03:46.616Z,100827.03
2023-05-02T09:06:16.453Z,100832.78
2023-05-02T09:08:45.827Z,100814.22
2023-05-02T09:11:14.415Z,100838.31
2023-05-02T09:13:45.245Z,100837.75
2023-05-02T09:16:16.103Z,100849.72
2023-05-02T09:18:45.719Z,100842.47
2023-05-02T09:21:16.253Z,100855.19
2023-05-02T09:23:47.684Z,100865.88
2023-05-02T09:26:18.347Z,100843.19
2023-05-02T09:28:49.116Z,100870.94
2023-05-02T09:31:26.847Z,100868.53
2023-05-02T09:34:09.941Z,100872.91
2023-05-02T09:36:41.466Z,100792.91
2023-05-02T09:39:11.943Z,100868.56
2023-05-02T09:41:43.261Z,100861.59
2023-05-02T09:44:14.032Z,100867.38
2023-05-02T09:46:43.047Z,100863.97
2023-05-02T09:49:11.168Z,100875.72
2023-05-02T09:51:39.507Z,100856.66
2023-05-02T09:54:07.823Z,100885.78
2023-05-02T09:56:53.470Z,100880.09
2023-05-02T09:59:22.804Z,100892.31
2023-05-02T10:01:57.691Z,100889.69
2023-05-02T10:04:26.747Z,100884.28
2023-05-02T10:06:56.223Z,100893.72
2023-05-02T10:09:26.765Z,100886.63
2023-05-02T10:11:56.556Z,100902.28
2023-05-02T10:14:29.572Z,100878.38
2023-05-02T10:17:02.602Z,100908.69
2023-05-02T10:19:33.773Z,100911.88
2023-05-02T10:22:02.868Z,100909.53
2023-05-02T10:24:33.459Z,100920.00
2023-05-02T10:27:02.219Z,100903.50
2023-05-02T10:29:33.154Z,100754.59
2023-05-02T10:32:02.305Z,100904.66
2023-05-02T10:34:34.027Z,100900.56
2023-05-02T10:37:03.579Z,100898.34
2023-05-02T10:39:33.331Z,100915.66
2023-05-02T10:42:03.591Z,100911.03
2023-05-02T10:44:36.707Z,100893.81
2023-05-02T10:47:20.331Z,100919.34
2023-05-02T10:49:53.150Z,100924.25
2023-05-02T10:52:27.948Z,100919.25
2023-05-02T10:55:20.708Z,100933.72
2023-05-02T10:58:22.764Z,100955.16
2023-05-02T11:00:52.144Z,100965.63
2023-05-02T11:04:02.892Z,100960.22
2023-05-02T11:06:33.523Z,100957.59
2023-05-02T11:09:34.070Z,100966.38
2023-05-02T11:12:04.897Z,100959.94
2023-05-02T11:14:51.169Z,100963.81
2023-05-02T11:17:21.397Z,100948.88
2023-05-02T11:20:26.976Z,100957.59
2023-05-02T11:22:59.632Z,100968.97
2023-05-02T11:25:38.989Z,100970.00
2023-05-02T11:28:10.690Z,100977.84
2023-05-02T11:30:48.639Z,100956.09
2023-05-02T11:33:20.237Z,100915.91
2023-05-02T11:35:49.500Z,100969.34
2023-05-02T11:38:20.565Z,100971.28
2023-05-02T11:40:59.314Z,100976.88
2023-05-02T11:43:31.499Z,100961.88
2023-05-02T11:46:03.104Z,100951.94
2023-05-02T11:48:32.649Z,100986.00
2023-05-02T11:51:05.555Z,100996.41
2023-05-02T11:53:34.132Z,100997.72
2023-05-02T11:56:03.535Z,100986.41
2023-05-02T11:58:33.854Z,100980.97
2023-05-02T12:01:13.726Z,100967.88
2023-05-02T12:03:43.926Z,101003.66
2023-05-02T12:06:13.701Z,101000.75
2023-05-02T12:08:45.118Z,100991.97
2023-05-02T12:11:15.623Z,100998.66
2023-05-02T12:13:48.158Z,101008.31
2023-05-02T12:16:16.769Z,100991.59
2023-05-02T12:18:48.312Z,101013.84
2023-05-02T12:21:16.792Z,101001.59
2023-05-02T12:23:47.888Z,101003.22
2023-05-02T12:26:19.748Z,101016.88
2023-05-02T12:28:51.592Z,101003.50
2023-05-02T12:31:19.804Z,100992.16
2023-05-02T12:33:50.998Z,101009.88
2023-05-02T12:36:19.549Z,101007.31
2023-05-02T12:38:52.432Z,101020.63
2023-05-02T12:41:21.109Z,101022.31
2023-05-02T12:43:51.267Z,101033.56
2023-05-02T12:46:19.119Z,101034.47
2023-05-02T12:48:47.274Z,101035.59
2023-05-02T12:51:25.797Z,101050.59
2023-05-02T12:53:53.907Z,101051.47
2023-05-02T12:56:22.207Z,101052.22
2023-05-02T12:58:50.944Z,101046.09
2023-05-02T13:01:19.283Z,101062.84
2023-05-02T13:03:48.023Z,101070.50
2023-05-02T13:06:16.061Z,101069.78
2023-05-02T13:08:45.534Z,101065.97
2023-05-02T13:11:13.506Z,101093.63
2023-05-02T13:13:41.325Z,101087.72
2023-05-02T13:16:09.855Z,101099.31
2023-05-02T13:18:37.904Z,101077.16
2023-05-02T13:21:06.169Z,101086.03
2023-05-02T13:23:34.149Z,101094.00
2023-05-02T13:26:03.802Z,101092.94
2023-05-02T13:28:33.350Z,101079.44
2023-05-02T13:31:01.444Z,101099.44
2023-05-02T13:33:29.338Z,101100.91
2023-05-02T13:35:57.292Z,101116.53
2023-05-02T13:38:25.339Z,101116.81
2023-05-02T13:40:54.231Z,101108.50
2023-05-02T13:43:24.656Z,101109.53
2023-05-02T13:45:52.939Z,101118.94
2023-05-02T13:48:20.944Z,101127.03
2023-05-02T13:50:48.772Z,101118.19
2023-05-02T13:53:16.752Z,101120.41
2023-05-02T13:55:44.811Z,101130.13
2023-05-02T13:58:12.635Z,101136.72
2023-05-02T14:00:42.318Z,101139.56
2023-05-02T14:03:11.630Z,101152.94
2023-05-02T14:05:43.556Z,101151.13
2023-05-02T14:08:11.832Z,101159.81
2023-05-02T14:10:40.067Z,101155.16
2023-05-02T14:13:08.057Z,101166.53
2023-05-02T14:15:37.594Z,101171.44
2023-05-02T14:18:06.918Z,101174.56
2023-05-02T14:20:34.804Z,101184.38
2023-05-02T14:23:03.181Z,101186.19
2023-05-02T14:25:31.575Z,101070.16
2023-05-02T14:27:59.505Z,101188.66
2023-05-02T14:30:27.492Z,101182.06
2023-05-02T14:32:55.680Z,101187.59
2023-05-02T14:35:25.244Z,101178.97
2023-05-02T14:37:53.142Z,101151.56
2023-05-02T14:40:21.820Z,101176.41
2023-05-02T14:42:49.830Z,101184.31
2023-05-02T14:45:17.757Z,101197.34
2023-05-02T14:47:45.937Z,101190.41
2023-05-02T14:50:13.806Z,101206.28
2023-05-02T14:52:43.272Z,101210.06
2023-05-02T14:55:12.317Z,101189.06
2023-05-02T14:57:40.154Z,101222.59
2023-05-02T15:00:10.001Z,101216.78
2023-05-02T15:02:38.203Z,101068.94
2023-05-02T15:05:08.069Z,101214.97
2023-05-02T15:07:36.058Z,101231.53
2023-05-02T15:10:05.820Z,101214.97
2023-05-02T15:12:33.692Z,101238.00
2023-05-02T15:15:01.638Z,101233.75
2023-05-02T15:17:29.736Z,101243.03
2023-05-02T15:19:58.518Z,101195.03
2023-05-02T15:22:26.799Z,101242.53
2023-05-02T15:24:55.572Z,101233.34
2023-05-02T15:27:24.840Z,101240.66
2023-05-02T15:29:52.656Z,101226.78
2023-05-02T15:32:21.699Z,101240.09
2023-05-02T15:34:49.948Z,101237.97
2023-05-02T15:37:17.785Z,101239.00
2023-05-02T15:39:45.725Z,101243.34
2023-05-02T15:42:13.779Z,101212.44
2023-05-02T15:44:42.961Z,101191.06
2023-05-02T15:47:10.911Z,101250.16
2023-05-02T15:49:39.308Z,101258.88
2023-05-02T15:52:07.256Z,101254.53
2023-05-02T15:54:35.369Z,101251.47
2023-05-02T15:57:03.681Z,101255.38
2023-05-02T15:59:31.624Z,101251.97
2023-05-02T16:02:01.034Z,101257.53
2023-05-02T16:04:29.177Z,101262.91
2023-05-02T16:06:57.151Z,101256.69
2023-05-02T16:09:25.083Z,101262.75
2023-05-02T16:11:53.284Z,101269.47
2023-05-02T16:14:23.931Z,101276.53
2023-05-02T16:16:51.894Z,101278.63
2023-05-02T16:19:24.117Z,101276.25
2023-05-02T16:21:52.011Z,101306.31
2023-05-02T16:24:19.918Z,101283.97
2023-05-02T16:26:48.107Z,101323.63
2023-05-02T16:29:16.153Z,101316.16
2023-05-02T16:31:44.784Z,101313.31
2023-05-02T16:34:12.858Z,101313.13
2023-05-02T16:36:42.424Z,101288.97
2023-05-02T16:39:11.641Z,101308.41
2023-05-02T16:41:39.516Z,101308.56
2023-05-02T16:44:07.343Z,101313.34
2023-05-02T16:46:35.591Z,101311.97
2023-05-02T16:49:03.476Z,101320.56
2023-05-02T16:51:32.044Z,101332.78
2023-05-02T16:54:01.618Z,101335.44
2023-05-02T16:56:29.509Z,101346.63
2023-05-02T16:58:57.332Z,101340.75
2023-05-02T17:01:25.499Z,101348.97
2023-05-02T17:03:53.403Z,101358.00
2023-05-02T17:06:21.259Z,101359.84
2023-05-02T17:08:49.411Z,101361.59
2023-05-02T17:11:18.855Z,101364.38
2023-05-02T17:13:47.291Z,101365.09
2023-05-02T17:16:15.358Z,101316.09
2023-05-02T17:18:43.319Z,101347.41
2023-05-02T17:21:11.638Z,101372.03
2023-05-02T17:23:39.662Z,101352.78
2023-05-02T17:26:14.378Z,101366.13
2023-05-02T17:28:45.053Z,101306.75
2023-05-02T17:31:13.118Z,101365.41
2023-05-02T17:33:42.428Z,101359.75
2023-05-02T17:36:10.764Z,101364.91
2023-05-02T17:38:38.668Z,101375.09
2023-05-02T17:41:06.889Z,101370.13
2023-05-02T17:43:34.812Z,101381.44
2023-05-02T17:46:10.087Z,101384.81
2023-05-02T17:48:38.259Z,101381.56
2023-05-02T17:51:07.148Z,101371.31
2023-05-02T17:53:36.771Z,101392.06
2023-05-02T17:56:05.384Z,101396.81
2023-05-02T17:58:35.434Z,101393.69
2023-05-02T18:01:10.091Z,101379.00
2023-05-02T18:03:38.406Z,101395.72
2023-05-02T18:06:06.577Z,101394.56
2023-05-02T18:08:34.570Z,101402.25
2023-05-02T18:11:03.316Z,101401.28
2023-05-02T18:13:31.278Z,101392.09
2023-05-02T18:16:00.081Z,101399.06
2023-05-02T18:18:29.578Z,101410.38
2023-05-02T18:20:57.760Z,101409.41
2023-05-02T18:23:25.620Z,101411.84
2023-05-02T18:25:55.988Z,101401.13
2023-05-02T18:28:23.821Z,101406.34
2023-05-02T18:30:51.985Z,101411.47
2023-05-02T18:33:19.957Z,101420.00
2023-05-02T18:35:50.036Z,101350.03
2023-05-02T18:38:18.444Z,101391.97
2023-05-02T18:40:46.320Z,101433.53
2023-05-02T18:43:14.572Z,101427.34
2023-05-02T18:45:44.713Z,101415.53
2023-05-02T18:48:12.765Z,101443.47
2023-05-02T18:50:40.654Z,101441.81
2023-05-02T18:53:09.916Z,101437.28
2023-05-02T18:55:37.834Z,101427.13
2023-05-02T18:58:05.668Z,101442.19
2023-05-02T19:00:36.318Z,101419.50
2023-05-02T19:03:05.304Z,101458.31
2023-05-02T19:05:34.957Z,101456.38
2023-05-02T19:08:03.428Z,101454.38
2023-05-02T19:10:33.063Z,101455.00
2023-05-02T19:13:01.091Z,101439.31
2023-05-02T19:15:28.958Z,101458.09
2023-05-02T19:17:58.795Z,101228.91
2023-05-02T19:20:29.362Z,101462.28
2023-05-02T19:23:14.542Z,101466.69
2023-05-02T19:25:47.679Z,101468.41
2023-05-02T19:28:16.939Z,101472.75
2023-05-02T19:30:45.747Z,101472.81
2023-05-02T19:33:14.048Z,101477.91
2023-05-02T19:35:42.429Z,101310.28
2023-05-02T19:38:10.436Z,101473.91
2023-05-02T19:40:38.940Z,101476.66
2023-05-02T19:43:08.112Z,101480.94
2023-05-02T19:45:36.125Z,101490.34
2023-05-02T19:48:04.470Z,101483.19
2023-05-02T19:50:33.340Z,101488.25
2023-05-02T19:53:01.675Z,101495.13
2023-05-02T19:55:29.701Z,101496.72
2023-05-02T19:57:57.593Z,101494.03
2023-05-02T20:00:26.787Z,101493.94
2023-05-02T20:02:55.065Z,101496.50
2023-05-02T20:05:23.029Z,101484.00
2023-05-02T20:07:51.280Z,101494.78
2023-05-02T20:10:19.610Z,101494.84
2023-05-02T20:12:47.440Z,101500.81
2023-05-02T20:15:16.462Z,101504.25
2023-05-02T20:17:46.121Z,101500.72
2023-05-02T20:20:14.303Z,101505.16
2023-05-02T20:22:42.192Z,101500.81
2023-05-02T20:25:11.659Z,101511.91
2023-05-02T20:27:39.774Z,101502.16
2023-05-02T20:30:09.537Z,101491.09
2023-05-02T20:32:37.984Z,101494.31
2023-05-02T20:35:08.239Z,101509.91
2023-05-02T20:37:36.202Z,101509.75
2023-05-02T20:40:05.538Z,101518.28
2023-05-02T20:42:33.695Z,101518.13
2023-05-02T20:45:05.685Z,101522.22
2023-05-02T20:47:33.799Z,101523.78
2023-05-02T20:50:02.611Z,101520.13
2023-05-02T20:52:33.054Z,101522.72
2023-05-02T20:55:01.738Z,101529.66
2023-05-02T20:57:29.700Z,101537.44
2023-05-02T20:59:59.593Z,101519.00
2023-05-02T21:02:28.057Z,101543.78
2023-05-02T21:04:56.204Z,101531.09
2023-05-02T21:07:24.124Z,101532.00
2023-05-02T21:09:53.338Z,101532.81
2023-05-02T21:12:21.263Z,101533.63
2023-05-02T21:14:49.185Z,101540.28
2023-05-02T21:17:17.189Z,101534.81
2023-05-02T21:19:45.177Z,101538.13
2023-05-02T21:22:13.007Z,101538.78
2023-05-02T21:24:40.872Z,101543.03
2023-05-02T21:27:10.188Z,101537.66
2023-05-02T21:29:38.086Z,101522.28
2023-05-02T21:32:07.089Z,101531.81
2023-05-02T21:34:35.475Z,101561.91
2023-05-02T21:37:03.381Z,101539.72
2023-05-02T21:39:31.215Z,101560.03
2023-05-02T21:41:59.168Z,101554.72
2023-05-02T21:44:28.426Z,101551.13
2023-05-02T21:46:56.283Z,101545.53
2023-05-02T21:49:24.309Z,101563.13
2023-05-02T21:51:52.148Z,101562.31
2023-05-02T21:54:20.040Z,101557.91
2023-05-02T21:56:47.930Z,101558.00
2023-05-02T21:59:15.853Z,101563.06
2023-05-02T22:01:45.089Z,101561.19
2023-05-02T22:04:14.216Z,101570.41
2023-05-02T22:06:42.402Z,101571.06
2023-05-02T22:09:10.523Z,101552.00
2023-05-02T22:11:38.636Z,101574.97
2023-05-02T22:14:06.625Z,101526.34
2023-05-02T22:16:34.434Z,101571.25
2023-05-02T22:19:03.747Z,101573.78
2023-05-02T22:21:31.599Z,101566.69
2023-05-02T22:23:59.648Z,101571.00
2023-05-02T22:26:27.557Z,101568.31
2023-05-02T22:28:55.504Z,101572.53
2023-05-02T22:31:23.388Z,101568.06
2023-05-02T22:33:51.393Z,101569.69
2023-05-02T22:36:20.747Z,101548.34
2023-05-02T22:38:48.713Z,101523.72
2023-05-02T22:41:16.886Z,101502.06
2023-05-02T22:43:44.713Z,101563.97
2023-05-02T22:46:12.630Z,101567.41
2023-05-02T22:48:40.772Z,101565.53
2023-05-02T22:51:08.710Z,101552.56
2023-05-02T22:53:38.050Z,101559.66
2023-05-02T22:56:06.562Z,101578.00
2023-05-02T22:58:34.419Z,101574.22
2023-05-02T23:01:03.399Z,101576.59
2023-05-02T23:03:31.522Z,101579.03
2023-05-02T23:05:59.482Z,101584.16
2023-05-02T23:08:27.366Z,101586.59
2023-05-02T23:10:57.038Z,101577.78
2023-05-02T23:13:24.975Z,101584.63
2023-05-02T23:15:54.591Z,101580.88
2023-05-02T23:18:22.614Z,101560.16
2023-05-02T23:20:50.707Z,101567.16
2023-05-02T23:23:18.683Z,101575.88
2023-05-02T23:25:47.973Z,101574.91
2023-05-02T23:28:17.426Z,101582.63
2023-05-02T23:30:45.521Z,101584.06
2023-05-02T23:33:13.495Z,101579.59
2023-05-02T23:35:41.343Z,101588.13
2023-05-02T23:38:09.294Z,101553.88
2023-05-02T23:40:37.166Z,101588.50
2023-05-02T23:43:05.157Z,101590.84
2023-05-02T23:45:34.500Z,101591.56
2023-05-02T23:48:02.609Z,101595.72
2023-05-02T23:50:30.534Z,101597.31
2023-05-02T23:52:58.395Z,101597.16
2023-05-02T23:55:27.009Z,101580.00
2023-05-02T23:57:54.885Z,101596.97
